Dzalinda, Russia
Current Conditions -  °F | °C
As of 1:00 PM on Tuesday 21 Oct 2014 (Local Time) from UHBB Reporting Station
Clear Clear  
Wind Chill: 20°   Ceiling: Unl
Heat Index: 30°   Visibility: 6mi
Dew Point: -4°   Wind: 13mph
Humidity: 23%   Direction: 320°NW
Pressure: 30.12"   Gusts: NA
Location:  53.47°N, 123.9°E
Report Text: UHBB 210400Z 32006MPS 280V350 CAVOK M01/M20 Q1020 NOSIG RMKQFE747/0996 36090060
Loading
Personal Weather Stations






























Interactive Weather Map
Tropical Storm Tracking
New forecast layout! Learn more

10-Day Weather Forecast

Advertisements
Track Severe Weather on mobile